createdAt,value
2018-02-23T00:00:30.994Z,23.67
2018-02-23T00:02:58.529Z,21.60
2018-02-23T00:05:26.043Z,22.07
2018-02-23T00:07:53.566Z,19.57
2018-02-23T00:10:21.129Z,21.03
2018-02-23T00:12:48.643Z,20.47
2018-02-23T00:15:16.146Z,20.13
2018-02-23T00:17:43.663Z,18.73
2018-02-23T00:20:11.538Z,18.00
2018-02-23T00:22:41.859Z,18.23
2018-02-23T00:25:09.354Z,18.27
2018-02-23T00:27:37.313Z,17.87
2018-02-23T00:30:04.833Z,17.90
2018-02-23T00:32:32.345Z,17.10
2018-02-23T00:34:59.881Z,17.47
2018-02-23T00:37:27.403Z,17.47
2018-02-23T00:39:54.928Z,16.93
2018-02-23T00:42:22.451Z,16.57
2018-02-23T00:44:49.954Z,16.50
2018-02-23T00:47:17.476Z,16.60
2018-02-23T00:49:45.016Z,16.20
2018-02-23T00:52:12.542Z,14.90
2018-02-23T00:54:40.832Z,15.20
2018-02-23T00:57:08.409Z,14.90
2018-02-23T00:59:36.027Z,14.90
2018-02-23T01:02:03.545Z,15.27
2018-02-23T01:04:31.107Z,15.17
2018-02-23T01:06:58.627Z,15.60
2018-02-23T01:09:26.148Z,14.83
2018-02-23T01:11:53.708Z,15.13
2018-02-23T01:14:21.213Z,14.67
2018-02-23T01:16:48.715Z,15.20
2018-02-23T01:19:16.229Z,15.13
2018-02-23T01:21:43.833Z,15.67
2018-02-23T01:24:12.197Z,15.20
2018-02-23T01:26:39.737Z,13.57
2018-02-23T01:29:07.260Z,14.80
2018-02-23T01:31:34.762Z,15.20
2018-02-23T01:34:02.294Z,15.77
2018-02-23T01:36:29.794Z,15.00
2018-02-23T01:38:57.299Z,14.60
2018-02-23T01:43:58.645Z,13.57
2018-02-23T01:46:26.931Z,14.23
2018-02-23T01:48:54.442Z,13.77
2018-02-23T01:51:21.943Z,14.43
2018-02-23T01:53:49.468Z,13.83
2018-02-23T01:56:17.791Z,14.53
2018-02-23T01:58:45.262Z,13.77
2018-02-23T02:01:12.795Z,13.23
2018-02-23T02:03:40.321Z,11.90
2018-02-23T02:06:07.841Z,13.67
2018-02-23T02:08:35.355Z,12.93
2018-02-23T02:11:02.869Z,13.70
2018-02-23T02:13:30.377Z,13.33
2018-02-23T02:15:57.942Z,13.63
2018-02-23T02:18:25.460Z,12.33
2018-02-23T02:20:52.992Z,13.13
2018-02-23T02:23:20.512Z,13.40
2018-02-23T02:25:48.013Z,13.63
2018-02-23T02:28:15.519Z,12.63
2018-02-23T02:30:43.032Z,12.30
2018-02-23T02:33:10.539Z,12.20
2018-02-23T02:35:38.822Z,11.80
2018-02-23T02:38:07.148Z,12.33
2018-02-23T02:40:34.679Z,12.63
2018-02-23T02:43:02.195Z,12.90
2018-02-23T02:45:29.721Z,13.37
2018-02-23T02:47:57.228Z,13.73
2018-02-23T02:50:24.737Z,11.53
2018-02-23T02:52:52.268Z,12.03
2018-02-23T02:55:19.762Z,11.23
2018-02-23T02:57:48.023Z,12.17
2018-02-23T03:00:15.620Z,11.63
2018-02-23T03:02:43.131Z,11.17
2018-02-23T03:05:10.633Z,11.50
2018-02-23T03:07:38.161Z,12.70
2018-02-23T03:10:05.670Z,11.83
2018-02-23T03:12:33.948Z,11.50
2018-02-23T03:15:02.248Z,11.20
2018-02-23T03:17:30.555Z,10.80
2018-02-23T03:19:58.054Z,12.33
2018-02-23T03:22:25.583Z,11.77
2018-02-23T03:24:53.078Z,12.30
2018-02-23T03:27:21.351Z,12.00
2018-02-23T03:29:48.889Z,11.00
2018-02-23T03:32:16.394Z,11.60
2018-02-23T03:34:43.900Z,11.23
2018-02-23T03:37:11.427Z,10.60
2018-02-23T03:39:38.945Z,10.67
2018-02-23T03:42:06.466Z,10.80
2018-02-23T03:44:34.001Z,10.83
2018-02-23T03:47:01.502Z,11.70
2018-02-23T03:49:29.022Z,11.03
2018-02-23T03:51:56.538Z,10.87
2018-02-23T03:54:24.039Z,11.20
2018-02-23T03:56:52.304Z,9.70
2018-02-23T03:59:19.878Z,10.73
2018-02-23T04:01:47.384Z,10.80
2018-02-23T04:04:14.883Z,9.80
2018-02-23T04:06:42.415Z,10.07
2018-02-23T04:09:09.931Z,10.70
2018-02-23T04:11:37.446Z,10.37
2018-02-23T04:14:04.972Z,10.50
2018-02-23T04:16:32.475Z,10.73
2018-02-23T04:18:59.975Z,10.90
2018-02-23T04:21:28.270Z,10.67
2018-02-23T04:23:55.781Z,10.43
2018-02-23T04:26:23.294Z,11.07
2018-02-23T04:28:50.813Z,11.27
2018-02-23T04:31:18.332Z,10.90
2018-02-23T04:33:45.852Z,10.37
2018-02-23T04:36:14.139Z,10.37
2018-02-23T04:38:41.653Z,10.50
2018-02-23T04:41:09.160Z,11.33
2018-02-23T04:43:36.674Z,10.60
2018-02-23T04:46:04.180Z,10.70
2018-02-23T04:48:31.690Z,12.27
2018-02-23T04:50:59.217Z,11.17
2018-02-23T04:53:26.759Z,11.27
2018-02-23T04:55:54.342Z,11.60
2018-02-23T04:58:21.868Z,11.47
2018-02-23T05:00:49.387Z,11.17
2018-02-23T05:03:16.889Z,10.70
2018-02-23T05:05:44.419Z,10.67
2018-02-23T05:08:12.696Z,10.87
2018-02-23T05:10:40.962Z,11.30
2018-02-23T05:13:08.492Z,10.90
2018-02-23T05:15:35.993Z,11.37
2018-02-23T05:18:04.259Z,11.80
2018-02-23T05:20:31.787Z,11.47
2018-02-23T05:22:59.283Z,11.10
2018-02-23T05:25:27.550Z,11.77
2018-02-23T05:27:55.851Z,11.43
2018-02-23T05:30:23.365Z,11.83
2018-02-23T05:32:50.892Z,12.07
2018-02-23T05:35:18.424Z,12.10
2018-02-23T05:37:45.930Z,11.53
2018-02-23T05:40:13.424Z,11.80
2018-02-23T05:42:40.948Z,11.00
2018-02-23T05:45:08.463Z,12.50
2018-02-23T05:47:35.959Z,12.27
2018-02-23T05:50:03.474Z,11.67
2018-02-23T05:52:30.977Z,12.30
2018-02-23T05:54:58.483Z,12.20
2018-02-23T05:57:26.007Z,12.23
2018-02-23T05:59:53.528Z,12.17
2018-02-23T06:02:21.044Z,11.97
2018-02-23T06:04:48.568Z,12.13
2018-02-23T06:07:16.094Z,11.83
2018-02-23T06:09:43.587Z,11.87
2018-02-23T06:12:11.104Z,11.93
2018-02-23T06:14:38.620Z,12.33
2018-02-23T06:17:12.653Z,11.50
2018-02-23T06:19:45.893Z,11.97
2018-02-23T06:22:13.618Z,12.77
2018-02-23T06:24:41.161Z,11.87
2018-02-23T06:27:09.426Z,12.67
2018-02-23T06:29:37.977Z,12.57
2018-02-23T06:32:05.494Z,10.80
2018-02-23T06:34:33.027Z,12.50
2018-02-23T06:37:01.319Z,11.87
2018-02-23T06:39:28.837Z,13.13
2018-02-23T06:41:56.349Z,13.73
2018-02-23T06:44:24.013Z,12.93
2018-02-23T06:46:58.033Z,12.63
2018-02-23T06:49:25.557Z,12.70
2018-02-23T06:51:53.097Z,14.57
2018-02-23T06:54:20.601Z,14.57
2018-02-23T06:56:48.123Z,13.93
2018-02-23T06:59:16.395Z,13.10
2018-02-23T07:01:44.679Z,13.20
2018-02-23T07:04:13.241Z,12.97
2018-02-23T07:06:40.757Z,13.03
2018-02-23T07:09:08.321Z,14.13
2018-02-23T07:11:35.840Z,12.97
2018-02-23T07:14:04.154Z,13.80
2018-02-23T07:16:31.661Z,13.97
2018-02-23T07:18:59.182Z,13.70
2018-02-23T07:21:26.701Z,14.00
2018-02-23T07:23:54.231Z,14.40
2018-02-23T07:26:21.760Z,14.13
2018-02-23T07:28:49.329Z,13.50
2018-02-23T07:31:16.831Z,13.87
2018-02-23T07:33:44.370Z,12.93
2018-02-23T07:36:11.937Z,15.93
2018-02-23T07:38:39.422Z,14.80
2018-02-23T07:41:06.956Z,14.10
2018-02-23T07:43:34.869Z,14.20
2018-02-23T07:46:02.445Z,14.80
2018-02-23T07:48:30.181Z,16.13
2018-02-23T07:50:57.691Z,14.87
2018-02-23T07:53:25.982Z,15.67
2018-02-23T07:55:54.307Z,15.63
2018-02-23T07:58:21.911Z,16.47
2018-02-23T08:00:50.189Z,16.60
2018-02-23T08:03:18.502Z,16.27
2018-02-23T08:05:46.025Z,16.93
2018-02-23T08:08:14.423Z,16.70
2018-02-23T08:10:41.987Z,18.03
2018-02-23T08:13:09.528Z,17.07
2018-02-23T08:15:37.035Z,17.97
2018-02-23T08:18:05.083Z,18.43
2018-02-23T08:20:32.589Z,17.00
2018-02-23T08:23:00.197Z,17.13
2018-02-23T08:25:27.961Z,17.43
2018-02-23T08:27:55.629Z,17.33
2018-02-23T08:30:23.154Z,17.03
2018-02-23T08:32:51.472Z,16.77
2018-02-23T08:35:18.972Z,17.47
2018-02-23T08:37:46.482Z,17.43
2018-02-23T08:40:14.011Z,16.70
2018-02-23T08:42:41.506Z,15.27
2018-02-23T08:45:09.723Z,15.83
2018-02-23T08:47:37.271Z,15.43
2018-02-23T08:50:04.780Z,15.57
2018-02-23T08:52:32.286Z,15.33
2018-02-23T08:54:59.813Z,15.83
2018-02-23T08:57:27.353Z,14.93
2018-02-23T08:59:54.909Z,14.43
2018-02-23T09:02:22.435Z,13.37
2018-02-23T09:04:50.712Z,12.17
2018-02-23T09:07:18.228Z,11.50
2018-02-23T09:09:45.747Z,13.33
2018-02-23T09:12:13.254Z,12.77
2018-02-23T09:14:40.784Z,13.53
2018-02-23T09:17:08.303Z,12.23
2018-02-23T09:19:35.814Z,11.90
2018-02-23T09:22:03.339Z,11.07
2018-02-23T09:24:31.122Z,10.50
2018-02-23T09:26:58.610Z,10.47
2018-02-23T09:29:26.182Z,10.57
2018-02-23T09:31:54.082Z,9.13
2018-02-23T09:34:33.463Z,9.57
2018-02-23T09:37:01.268Z,8.37
2018-02-23T09:39:28.762Z,8.43
2018-02-23T09:41:56.281Z,8.83
2018-02-23T09:44:24.180Z,9.03
2018-02-23T09:46:51.679Z,7.40
2018-02-23T09:49:19.198Z,7.93
2018-02-23T09:51:47.017Z,8.67
2018-02-23T09:54:14.517Z,7.97
2018-02-23T09:56:42.027Z,7.90
2018-02-23T09:59:09.840Z,7.40
2018-02-23T10:01:37.367Z,6.60
2018-02-23T10:04:05.639Z,6.33
2018-02-23T10:06:33.643Z,7.10
2018-02-23T10:09:01.152Z,5.87
2018-02-23T10:11:28.648Z,5.50
2018-02-23T10:13:56.622Z,5.70
2018-02-23T10:16:24.123Z,4.33
2018-02-23T10:18:51.622Z,4.70
2018-02-23T10:21:20.209Z,4.70
2018-02-23T10:23:48.467Z,4.50
2018-02-23T10:26:16.734Z,5.03
2018-02-23T10:28:45.928Z,4.60
2018-02-23T10:31:13.424Z,4.33
2018-02-23T10:33:41.085Z,3.37
2018-02-23T10:36:08.615Z,3.47
2018-02-23T10:38:36.892Z,3.70
2018-02-23T10:41:04.403Z,3.43
2018-02-23T10:43:31.936Z,3.07
2018-02-23T10:45:59.496Z,3.33
2018-02-23T10:48:27.007Z,3.17
2018-02-23T10:50:54.592Z,3.37
2018-02-23T10:53:22.045Z,2.90
2018-02-23T10:55:50.321Z,3.57
2018-02-23T10:58:18.614Z,3.23
2018-02-23T11:00:46.116Z,3.60
2018-02-23T11:03:13.625Z,3.60
2018-02-23T11:05:41.176Z,3.77
2018-02-23T11:08:09.459Z,4.00
2018-02-23T11:10:37.719Z,3.93
2018-02-23T11:13:06.007Z,4.07
2018-02-23T11:15:33.565Z,3.50
2018-02-23T11:18:01.831Z,3.87
2018-02-23T11:20:30.136Z,3.60
2018-02-23T11:22:57.635Z,3.13
2018-02-23T11:25:25.139Z,3.10
2018-02-23T11:27:53.007Z,3.30
2018-02-23T11:30:21.268Z,3.63
2018-02-23T11:32:48.770Z,3.27
2018-02-23T11:35:16.325Z,3.67
2018-02-23T11:37:43.905Z,3.53
2018-02-23T11:40:11.445Z,3.63
2018-02-23T11:42:38.971Z,3.40
2018-02-23T11:45:07.265Z,3.77
2018-02-23T11:47:34.861Z,3.50
2018-02-23T11:50:02.395Z,4.07
2018-02-23T11:52:29.875Z,3.70
2018-02-23T11:54:57.371Z,3.73
2018-02-23T11:57:31.368Z,4.70
2018-02-23T11:59:58.879Z,4.30
2018-02-23T12:02:26.368Z,4.80
2018-02-23T12:04:53.896Z,4.43
2018-02-23T12:07:21.383Z,4.10
2018-02-23T12:09:48.884Z,3.77
2018-02-23T12:12:16.456Z,4.10
2018-02-23T12:14:44.209Z,3.60
2018-02-23T12:17:11.709Z,3.80
2018-02-23T12:19:39.227Z,4.10
2018-02-23T12:22:07.602Z,3.67
2018-02-23T12:24:35.133Z,4.37
2018-02-23T12:27:02.669Z,4.30
2018-02-23T12:29:30.168Z,4.60
2018-02-23T12:31:58.452Z,4.47
2018-02-23T12:34:26.727Z,4.07
2018-02-23T12:36:54.217Z,4.80
2018-02-23T12:39:21.785Z,4.37
2018-02-23T12:41:49.305Z,4.70
2018-02-23T12:44:17.750Z,4.43
2018-02-23T12:46:45.236Z,4.30
2018-02-23T12:49:12.809Z,4.57
2018-02-23T12:51:40.434Z,4.80
2018-02-23T12:54:07.939Z,5.07
2018-02-23T12:56:35.454Z,4.57
2018-02-23T12:59:03.028Z,5.07
2018-02-23T13:01:30.517Z,4.77
2018-02-23T13:03:58.032Z,5.57
2018-02-23T13:06:25.745Z,5.50
2018-02-23T13:08:53.446Z,5.43
2018-02-23T13:11:21.038Z,5.60
2018-02-23T13:13:54.250Z,5.10
2018-02-23T13:16:22.582Z,5.60
2018-02-23T13:18:50.086Z,6.07
2018-02-23T13:21:17.735Z,5.80
2018-02-23T13:23:45.302Z,6.53
2018-02-23T13:26:13.522Z,6.13
2018-02-23T13:28:44.995Z,6.70
2018-02-23T13:31:12.518Z,7.07
2018-02-23T13:33:40.014Z,6.07
2018-02-23T13:36:08.485Z,6.63
2018-02-23T13:38:36.117Z,6.17
2018-02-23T13:44:05.763Z,7.40
2018-02-23T13:46:33.265Z,7.57
2018-02-23T13:49:00.756Z,8.70
2018-02-23T13:51:28.280Z,9.20
2018-02-23T13:54:01.500Z,8.80
2018-02-23T13:56:29.055Z,8.50
2018-02-23T13:58:57.336Z,8.93
2018-02-23T14:01:24.859Z,8.70
2018-02-23T14:03:52.744Z,9.47
2018-02-23T14:06:25.818Z,9.97
2018-02-23T14:08:53.368Z,10.07
2018-02-23T14:11:21.041Z,9.90
2018-02-23T14:13:48.531Z,9.90
2018-02-23T14:16:16.057Z,10.33
2018-02-23T14:18:43.587Z,10.37
2018-02-23T14:21:11.853Z,10.07
2018-02-23T14:23:39.400Z,10.23
2018-02-23T14:26:06.902Z,10.30
2018-02-23T14:28:34.539Z,10.63
2018-02-23T14:31:02.838Z,9.90
2018-02-23T14:33:30.402Z,10.23
2018-02-23T14:35:57.923Z,10.00
2018-02-23T14:38:25.522Z,10.17
2018-02-23T14:40:53.283Z,9.50
2018-02-23T14:43:20.825Z,9.53
2018-02-23T14:45:48.316Z,9.30
2018-02-23T14:48:28.280Z,9.80
2018-02-23T14:51:07.768Z,10.07
2018-02-23T14:53:36.039Z,9.73
2018-02-23T14:56:04.453Z,10.30
2018-02-23T14:58:31.972Z,9.63
2018-02-23T15:00:59.501Z,10.47
2018-02-23T16:23:02.661Z,10.67
2018-02-23T16:25:30.180Z,13.80
2018-02-23T16:27:57.693Z,11.63
2018-02-23T16:30:26.060Z,10.33
2018-02-23T16:32:53.588Z,10.03
2018-02-23T16:35:21.856Z,10.33
2018-02-23T16:37:49.744Z,10.97
2018-02-23T16:40:17.235Z,11.47
2018-02-23T16:42:44.745Z,10.90
2018-02-23T16:45:13.046Z,10.67
2018-02-23T16:47:40.544Z,10.80
2018-02-23T16:50:08.059Z,10.33
2018-02-23T16:52:35.586Z,10.80
2018-02-23T16:55:03.094Z,10.83
2018-02-23T16:57:30.777Z,10.40
2018-02-23T16:59:58.395Z,10.70
2018-02-23T17:02:25.917Z,12.03
2018-02-23T17:04:53.421Z,10.90
2018-02-23T17:07:20.942Z,12.63
2018-02-23T17:09:49.226Z,11.70
2018-02-23T17:12:17.499Z,11.23
2018-02-23T17:14:45.874Z,12.23
2018-02-23T17:17:14.277Z,11.87
2018-02-23T17:19:41.831Z,11.67
2018-02-23T17:22:10.144Z,11.20
2018-02-23T17:24:37.788Z,11.43
2018-02-23T17:27:05.696Z,12.20
2018-02-23T17:29:33.321Z,12.13
2018-02-23T17:32:00.884Z,12.10
2018-02-23T17:34:28.434Z,11.37
2018-02-23T17:36:56.084Z,12.40
2018-02-23T17:39:23.656Z,13.77
2018-02-23T17:41:51.202Z,12.60
2018-02-23T17:44:18.792Z,13.20
2018-02-23T17:46:47.188Z,13.30
2018-02-23T17:49:14.724Z,13.40
2018-02-23T17:51:42.247Z,13.90
2018-02-23T17:54:09.741Z,13.70
2018-02-23T17:56:37.243Z,13.93
2018-02-23T17:59:06.157Z,14.47
2018-02-23T18:01:33.705Z,15.23
2018-02-23T18:04:01.999Z,14.53
2018-02-23T18:06:29.551Z,13.57
2018-02-23T18:08:57.060Z,14.03
2018-02-23T18:11:25.396Z,14.73
2018-02-23T18:13:52.926Z,15.00
2018-02-23T18:16:20.504Z,15.87
2018-02-23T18:18:48.095Z,15.73
2018-02-23T18:21:15.710Z,15.50
2018-02-23T18:23:44.010Z,14.57
2018-02-23T18:26:11.545Z,14.60
2018-02-23T18:28:40.151Z,14.87
2018-02-23T18:31:07.703Z,14.70
2018-02-23T18:33:35.214Z,15.33
2018-02-23T18:36:02.782Z,15.43
2018-02-23T18:38:30.299Z,16.17
2018-02-23T18:40:57.812Z,15.40
2018-02-23T18:43:26.137Z,14.93
2018-02-23T18:45:53.685Z,14.83
2018-02-23T18:48:21.455Z,15.93
2018-02-23T18:50:48.984Z,15.07
2018-02-23T18:53:16.500Z,14.90
2018-02-23T18:55:44.085Z,14.87
2018-02-23T18:58:12.819Z,15.73
2018-02-23T19:00:40.368Z,14.67
2018-02-23T19:03:07.932Z,15.27
2018-02-23T19:05:35.877Z,14.67
2018-02-23T19:08:03.413Z,16.20
2018-02-23T19:10:31.737Z,16.23
2018-02-23T19:12:59.772Z,14.30
2018-02-23T19:15:28.144Z,14.10
2018-02-23T19:17:56.519Z,13.80
2018-02-23T19:20:24.891Z,13.87
2018-02-23T19:22:52.508Z,14.80
2018-02-23T19:25:20.110Z,14.00
2018-02-23T19:27:48.438Z,13.70
2018-02-23T19:30:15.994Z,12.83
2018-02-23T19:32:43.622Z,11.27
2018-02-23T19:35:11.236Z,12.57
2018-02-23T19:37:38.833Z,12.67
2018-02-23T19:40:06.587Z,13.30
2018-02-23T19:42:34.978Z,12.00
2018-02-23T19:45:02.576Z,11.30
2018-02-23T19:47:30.147Z,11.57
2018-02-23T19:49:57.787Z,10.87
2018-02-23T19:52:25.333Z,11.50
2018-02-23T19:54:52.998Z,11.33
2018-02-23T19:57:20.615Z,11.10
2018-02-23T19:59:48.216Z,11.10
2018-02-23T20:02:15.829Z,11.40
2018-02-23T20:04:43.470Z,12.03
2018-02-23T20:07:11.180Z,11.07
2018-02-23T20:09:39.528Z,11.23
2018-02-23T20:12:07.173Z,10.70
2018-02-23T20:14:34.765Z,10.63
2018-02-23T20:17:03.211Z,10.40
2018-02-23T20:19:30.866Z,10.50
2018-02-23T20:21:58.528Z,10.33
2018-02-23T20:24:26.097Z,11.27
2018-02-23T20:26:54.662Z,10.47
2018-02-23T20:29:22.285Z,11.57
2018-02-23T20:31:50.660Z,11.00
2018-02-23T20:34:18.263Z,11.13
2018-02-23T20:36:45.906Z,11.00
2018-02-23T20:39:13.506Z,11.23
2018-02-23T20:41:41.249Z,11.00
2018-02-23T20:44:09.833Z,11.70
2018-02-23T20:46:38.366Z,11.53
2018-02-23T20:49:06.812Z,12.43
2018-02-23T20:51:34.406Z,10.63
2018-02-23T20:54:02.931Z,10.70
2018-02-23T20:56:30.607Z,11.63
2018-02-23T20:58:58.175Z,12.13
2018-02-23T21:01:25.771Z,12.27
2018-02-23T21:03:53.392Z,11.57
2018-02-23T21:06:20.985Z,9.80
2018-02-23T21:08:49.294Z,11.67
2018-02-23T21:11:16.875Z,10.80
2018-02-23T21:13:44.515Z,10.83
2018-02-23T21:16:12.141Z,11.43
2018-02-23T21:18:39.774Z,10.40
2018-02-23T21:21:07.365Z,12.67
2018-02-23T21:23:36.013Z,10.50
2018-02-23T21:26:04.441Z,10.47
2018-02-23T21:28:32.023Z,9.87
2018-02-23T21:30:59.574Z,9.97
2018-02-23T21:33:27.251Z,10.23
2018-02-23T21:35:54.834Z,9.43
2018-02-23T21:38:22.408Z,9.30
2018-02-23T21:40:50.071Z,9.20
2018-02-23T21:43:17.656Z,8.97
2018-02-23T21:45:45.214Z,9.23
2018-02-23T21:48:13.614Z,8.40
2018-02-23T21:50:41.182Z,9.60
2018-02-23T21:53:08.746Z,8.07
2018-02-23T21:55:36.864Z,9.20
2018-02-23T21:58:04.462Z,9.33
2018-02-23T22:00:32.743Z,8.83
2018-02-23T22:03:00.283Z,9.20
2018-02-23T22:05:28.589Z,8.97
2018-02-23T22:07:56.204Z,8.83
2018-02-23T22:10:23.728Z,10.57
2018-02-23T22:12:51.258Z,9.63
2018-02-23T22:15:18.821Z,9.87
2018-02-23T22:17:46.349Z,9.10
2018-02-23T22:20:14.673Z,9.13
2018-02-23T22:22:42.226Z,7.73
2018-02-23T22:25:09.785Z,8.57
2018-02-23T22:27:37.368Z,9.37
2018-02-23T22:30:04.908Z,8.83
2018-02-23T22:32:32.496Z,8.43
2018-02-23T22:35:00.052Z,8.20
2018-02-23T22:37:27.552Z,8.17
2018-02-23T22:39:55.952Z,8.27
2018-02-23T22:42:23.480Z,8.57
2018-02-23T22:44:51.015Z,8.03
2018-02-23T22:47:19.360Z,7.93
2018-02-23T22:49:46.864Z,8.07
2018-02-23T22:52:14.431Z,8.27
2018-02-23T22:54:42.707Z,7.80
2018-02-23T22:57:10.240Z,8.00
2018-02-23T22:59:37.804Z,8.37
2018-02-23T23:02:05.331Z,8.47
2018-02-23T23:04:32.942Z,8.07
2018-02-23T23:07:01.273Z,7.87
2018-02-23T23:09:28.821Z,7.97
2018-02-23T23:11:56.452Z,7.97
2018-02-23T23:14:23.971Z,8.73
2018-02-23T23:16:51.672Z,7.90
2018-02-23T23:19:19.244Z,7.50
2018-02-23T23:21:46.772Z,8.13
2018-02-23T23:24:14.365Z,8.10
2018-02-23T23:26:41.868Z,7.93
2018-02-23T23:29:09.392Z,8.17
2018-02-23T23:31:36.912Z,7.40
2018-02-23T23:34:05.205Z,8.43
2018-02-23T23:36:33.055Z,7.40
2018-02-23T23:39:01.366Z,7.80
2018-02-23T23:41:28.879Z,8.30
2018-02-23T23:43:56.576Z,7.73
2018-02-23T23:46:24.144Z,8.03
2018-02-23T23:48:51.738Z,7.87
2018-02-23T23:51:19.281Z,7.67
2018-02-23T23:53:46.861Z,7.07
2018-02-23T23:56:14.774Z,6.93
2018-02-23T23:58:42.323Z,7.40
